Time;durP1;ratioP1;P1;durP2;ratioP2;P2;SDS_P1;SDS_P2;PMS_P1;PMS_P2;Temp;Humidity;BMP_temperature;BMP_pressure;BME280_temperature;BME280_humidity;BME280_pressure;Samples;Min_cycle;Max_cycle;Signal;HPM_P1;HPM_P2
2023/10/08 00:00:39;;;;;;;15.43;7.15;;;;;;;14.09;46.92;95714.00;4996130;28;20066;-76
2023/10/08 00:02:49;;;;;;;18.30;7.55;;;;;;;13.97;47.41;95694.13;5003872;28;20398;-77
2023/10/08 00:05:16;;;;;;;16.63;6.43;;;;;;;13.95;47.56;95713.09;4999827;28;20038;-76
2023/10/08 00:07:42;;;;;;;17.02;6.60;;;;;;;13.84;47.53;95700.91;5002108;28;20038;-76
2023/10/08 00:10:09;;;;;;;18.75;7.15;;;;;;;13.86;47.24;95685.44;5004554;28;20475;-76
2023/10/08 00:12:34;;;;;;;18.67;7.97;;;;;;;13.76;47.78;95682.88;5000404;28;20052;-77
2023/10/08 00:15:00;;;;;;;14.82;5.82;;;;;;;13.68;47.57;95673.59;5003109;28;20100;-76
2023/10/08 00:17:26;;;;;;;16.88;6.38;;;;;;;13.87;47.18;95687.03;5008422;28;20045;-77
2023/10/08 00:19:52;;;;;;;16.30;7.45;;;;;;;13.84;47.54;95688.38;4999416;28;20082;-77
2023/10/08 00:22:19;;;;;;;24.98;7.22;;;;;;;13.74;47.49;95672.47;4993152;28;20057;-77
2023/10/08 00:24:46;;;;;;;17.23;6.88;;;;;;;13.88;47.06;95688.63;5006771;28;20046;-77
2023/10/08 00:27:14;;;;;;;18.15;6.95;;;;;;;13.82;47.16;95684.41;4989136;28;20046;-76
2023/10/08 00:29:42;;;;;;;15.90;7.18;;;;;;;13.94;47.11;95690.16;4979508;28;20056;-76
2023/10/08 00:32:14;;;;;;;20.67;6.95;;;;;;;13.40;47.34;95653.88;4992701;28;20142;-77
2023/10/08 00:34:42;;;;;;;12.75;7.05;;;;;;;13.78;46.75;95686.06;4992612;28;20484;-76
2023/10/08 00:37:14;;;;;;;12.77;6.57;;;;;;;13.67;47.13;95671.22;4991821;28;20132;-77
2023/10/08 00:39:40;;;;;;;22.52;6.40;;;;;;;13.84;47.18;95676.91;4993995;28;20047;-77
2023/10/08 00:42:07;;;;;;;13.48;6.43;;;;;;;13.56;47.40;95675.84;4992161;28;20070;-77
2023/10/08 00:44:41;;;;;;;15.90;6.97;;;;;;;13.55;46.74;95665.47;4980623;28;20070;-77
2023/10/08 00:47:07;;;;;;;13.77;6.60;;;;;;;13.67;46.99;95666.69;4972573;28;20051;-76
2023/10/08 00:52:38;;;;;;;15.50;7.10;;;;;;;13.76;46.97;95678.31;4978038;28;20034;-76
2023/10/08 00:57:34;;;;;;;14.27;6.68;;;;;;;13.63;47.84;95656.88;4980363;28;20413;-77
2023/10/08 00:59:59;;;;;;;15.13;6.63;;;;;;;13.64;47.70;95656.59;4993699;28;20125;-76
2023/10/08 01:02:30;;;;;;;17.20;6.82;;;;;;;13.75;47.58;95670.59;4994882;28;20072;-74
2023/10/08 01:04:56;;;;;;;16.42;7.38;;;;;;;13.52;47.52;95646.28;4993314;28;20050;-74
2023/10/08 01:07:23;;;;;;;13.00;6.60;;;;;;;13.56;47.54;95643.88;5008233;28;20069;-74
2023/10/08 01:09:51;;;;;;;14.23;6.85;;;;;;;13.65;48.38;95674.19;4994349;28;20034;-74
2023/10/08 01:12:26;;;;;;;15.70;7.05;;;;;;;13.74;48.00;95669.81;4992761;28;20048;-73
2023/10/08 01:14:53;;;;;;;20.40;6.97;;;;;;;13.37;47.79;95605.66;4994383;28;20038;-74
2023/10/08 01:17:24;;;;;;;15.73;6.00;;;;;;;13.61;48.09;95656.34;4974665;28;20046;-74
2023/10/08 01:19:56;;;;;;;16.27;6.13;;;;;;;13.45;48.45;95632.50;4991778;28;20054;-74
2023/10/08 01:22:22;;;;;;;16.35;6.75;;;;;;;13.39;48.67;95630.97;4989082;28;20126;-74
2023/10/08 01:24:49;;;;;;;16.08;6.20;;;;;;;13.52;48.54;95669.47;4974132;28;20027;-73
2023/10/08 01:27:28;;;;;;;11.68;6.18;;;;;;;13.54;48.19;95670.00;4980927;28;20034;-74
2023/10/08 01:29:54;;;;;;;13.70;6.20;;;;;;;13.23;48.13;95634.03;4991669;28;20039;-73
2023/10/08 01:32:21;;;;;;;15.82;6.53;;;;;;;13.37;48.95;95670.41;4983278;28;20051;-74
2023/10/08 01:34:47;;;;;;;11.65;6.25;;;;;;;13.33;48.89;95652.59;4988310;28;20043;-74
2023/10/08 01:37:17;;;;;;;14.35;5.88;;;;;;;13.43;48.44;95669.28;4973435;28;20474;-74
2023/10/08 01:39:45;;;;;;;12.82;6.20;;;;;;;13.11;47.88;95629.84;4973529;28;20078;-74
2023/10/08 01:42:17;;;;;;;15.80;6.88;;;;;;;13.31;48.49;95668.84;4974054;28;20043;-74
2023/10/08 01:44:46;;;;;;;14.02;6.30;;;;;;;12.76;49.24;95630.84;4987923;28;20038;-74
2023/10/08 01:47:11;;;;;;;14.73;6.07;;;;;;;13.13;49.15;95656.19;4991038;28;20046;-74
2023/10/08 01:49:39;;;;;;;19.40;6.53;;;;;;;12.85;49.04;95614.31;4992733;28;20038;-74
2023/10/08 01:52:08;;;;;;;13.65;5.93;;;;;;;13.16;48.53;95654.84;4993212;28;20405;-74
2023/10/08 01:54:35;;;;;;;15.85;5.95;;;;;;;13.04;48.60;95642.69;4992356;28;20430;-74
2023/10/08 01:57:01;;;;;;;17.83;6.05;;;;;;;12.73;48.70;95593.38;4992726;28;20069;-74
2023/10/08 01:59:27;;;;;;;11.05;5.65;;;;;;;12.99;49.38;95663.97;4986808;28;20043;-73
2023/10/08 02:01:55;;;;;;;16.73;5.88;;;;;;;13.04;49.24;95671.16;4991601;28;20376;-75
2023/10/08 02:04:21;;;;;;;12.38;5.40;;;;;;;12.81;49.11;95661.19;4992796;28;20496;-74
2023/10/08 02:06:47;;;;;;;13.93;5.43;;;;;;;12.76;49.57;95652.16;4992959;28;20079;-74
2023/10/08 02:09:13;;;;;;;12.57;6.03;;;;;;;12.82;49.53;95660.91;4991165;28;20038;-73
2023/10/08 02:11:50;;;;;;;13.50;6.20;;;;;;;12.86;49.51;95667.28;4992065;28;20042;-74
2023/10/08 02:14:20;;;;;;;14.45;6.43;;;;;;;12.87;49.64;95660.09;4992229;28;20414;-74
2023/10/08 02:16:52;;;;;;;14.00;5.70;;;;;;;12.81;49.70;95651.34;4993290;28;20093;-74
2023/10/08 02:19:26;;;;;;;11.90;5.45;;;;;;;12.91;50.11;95664.56;4991061;28;20042;-75
2023/10/08 02:21:54;;;;;;;15.73;6.03;;;;;;;12.75;50.16;95661.19;4990675;28;20042;-74
2023/10/08 02:24:21;;;;;;;17.33;5.68;;;;;;;12.80;49.83;95663.06;5007403;28;20045;-74
2023/10/08 02:26:47;;;;;;;13.35;5.95;;;;;;;12.68;49.95;95644.75;4987893;28;20115;-74
2023/10/08 02:29:13;;;;;;;16.00;4.88;;;;;;;12.65;49.80;95647.97;4971569;28;20035;-74
2023/10/08 02:31:39;;;;;;;13.73;5.93;;;;;;;12.34;49.53;95610.09;4987062;28;20035;-74
2023/10/08 02:34:08;;;;;;;10.73;5.43;;;;;;;12.73;49.44;95657.25;4971489;28;20126;-74
2023/10/08 02:36:40;;;;;;;14.25;5.38;;;;;;;12.73;49.52;95657.25;4979787;28;20064;-74
2023/10/08 02:39:21;;;;;;;15.02;5.97;;;;;;;12.47;49.93;95629.16;4990920;28;20513;-74
2023/10/08 02:41:47;;;;;;;8.45;4.63;;;;;;;12.46;50.31;95619.59;4979677;28;20039;-74
2023/10/08 02:44:14;;;;;;;18.35;5.63;;;;;;;12.54;50.06;95629.66;4993768;28;20041;-73
2023/10/08 02:46:41;;;;;;;8.75;4.97;;;;;;;12.34;50.68;95617.28;4990313;28;20129;-74
2023/10/08 02:49:12;;;;;;;14.30;5.28;;;;;;;12.61;50.31;95654.91;4995242;28;20117;-74
2023/10/08 02:51:44;;;;;;;13.43;5.82;;;;;;;12.45;50.89;95649.91;4975274;28;20117;-74
2023/10/08 02:54:17;;;;;;;11.13;5.05;;;;;;;12.48;50.55;95638.75;4972542;28;20135;-74
2023/10/08 02:56:51;;;;;;;13.68;5.32;;;;;;;12.56;50.73;95649.59;4991950;28;20085;-74
2023/10/08 02:59:23;;;;;;;12.57;5.55;;;;;;;12.57;50.33;95653.88;4990716;28;20045;-74
2023/10/08 03:01:55;;;;;;;12.73;5.30;;;;;;;12.43;50.48;95623.63;4989789;28;20038;-74
2023/10/08 03:04:22;;;;;;;10.32;4.97;;;;;;;12.52;50.65;95645.09;4982796;28;20099;-74
2023/10/08 03:06:52;;;;;;;11.48;5.40;;;;;;;12.62;51.12;95663.69;4986385;28;20129;-74
2023/10/08 03:09:31;;;;;;;13.52;5.30;;;;;;;12.35;51.07;95632.16;4980179;28;20111;-74
2023/10/08 03:11:58;;;;;;;12.82;4.28;;;;;;;12.41;50.77;95630.28;4971728;28;20098;-74
2023/10/08 03:14:23;;;;;;;12.05;5.30;;;;;;;12.34;51.21;95618.06;4972219;28;20055;-73
2023/10/08 03:16:54;;;;;;;12.68;5.28;;;;;;;12.54;51.18;95648.28;4988654;28;20112;-74
2023/10/08 03:19:22;;;;;;;18.75;5.93;;;;;;;12.55;51.40;95652.53;5005340;28;20057;-74
2023/10/08 03:21:51;;;;;;;13.52;5.45;;;;;;;12.28;51.34;95611.16;5028966;28;20488;-76
2023/10/08 03:24:30;;;;;;;15.05;6.15;;;;;;;12.51;50.89;95643.53;5009241;28;20029;-76
2023/10/08 03:27:05;;;;;;;13.60;5.53;;;;;;;12.23;51.17;95600.56;5029647;28;20385;-76
2023/10/08 03:29:32;;;;;;;18.45;6.53;;;;;;;12.55;51.06;95644.56;5022691;28;20412;-76
2023/10/08 03:31:57;;;;;;;11.15;5.97;;;;;;;12.48;51.18;95633.41;5009250;28;20065;-76
2023/10/08 03:34:28;;;;;;;13.68;5.40;;;;;;;12.38;51.29;95619.09;5003595;28;20045;-78
2023/10/08 03:36:59;;;;;;;12.00;5.30;;;;;;;12.42;50.70;95629.19;5017031;28;20045;-76
2023/10/08 03:39:43;;;;;;;15.10;5.30;;;;;;;12.01;51.35;95570.88;4992907;28;20065;-76
2023/10/08 03:42:12;;;;;;;11.40;5.47;;;;;;;11.94;51.86;95575.69;5011276;28;20064;-76
2023/10/08 03:44:37;;;;;;;18.05;5.45;;;;;;;12.13;51.83;95603.25;5015919;28;20044;-76
2023/10/08 03:47:10;;;;;;;20.55;5.45;;;;;;;12.11;51.78;95602.75;5015411;28;20411;-76
2023/10/08 03:49:45;;;;;;;13.65;5.57;;;;;;;12.09;52.34;95596.09;5030117;28;20099;-76
2023/10/08 03:52:10;;;;;;;14.70;5.00;;;;;;;12.17;52.14;95614.94;5012078;28;20092;-76
2023/10/08 03:54:42;;;;;;;13.93;5.10;;;;;;;12.02;52.95;95611.56;5033283;28;20147;-76
2023/10/08 03:57:14;;;;;;;;;;;;;;;11.99;53.60;95628.81;5016114;28;20037;-76
2023/10/08 03:59:41;;;;;;;12.95;6.00;;;;;;;11.71;54.03;95622.25;5018578;28;19917;-76
2023/10/08 04:02:39;;;;;;;18.20;5.40;;;;;;;11.73;54.01;95608.69;5014450;28;20042;-76
2023/10/08 04:04:57;;;;;;;18.17;5.65;;;;;;;11.60;54.22;95596.75;5012110;28;20551;-76
2023/10/08 04:07:28;;;;;;;12.20;5.30;;;;;;;11.48;54.43;95614.84;5014333;28;20492;-76
2023/10/08 04:12:36;;;;;;;;;;;;;;;11.77;53.76;95620.38;5015210;28;20045;-76
2023/10/08 04:15:07;;;;;;;11.05;5.32;;;;;;;11.18;54.25;95533.38;4996415;28;20379;-76
2023/10/08 04:17:43;;;;;;;13.18;5.55;;;;;;;11.76;53.38;95613.47;5022783;28;20487;-76
2023/10/08 04:22:59;;;;;;;14.25;6.10;;;;;;;11.56;54.60;95607.13;5019098;28;20064;-76
2023/10/08 04:25:29;;;;;;;16.83;5.70;;;;;;;11.74;53.83;95607.63;4996022;28;20427;-76
2023/10/08 04:27:58;;;;;;;13.63;6.00;;;;;;;11.93;54.02;95619.28;5013585;28;20535;-76
2023/10/08 04:30:32;;;;;;;13.20;5.80;;;;;;;11.87;54.10;95605.22;4998126;28;20038;-76
2023/10/08 04:33:07;;;;;;;15.23;6.20;;;;;;;11.72;54.40;95604.44;5034227;28;20068;-76
2023/10/08 04:35:36;;;;;;;13.68;5.65;;;;;;;11.15;54.26;95524.06;5015200;28;20072;-76
2023/10/08 04:38:04;;;;;;;16.40;5.50;;;;;;;11.75;54.48;95620.66;5015393;28;20037;-76
2023/10/08 04:40:39;;;;;;;17.40;6.80;;;;;;;11.19;54.71;95535.75;5012119;28;20587;-76
2023/10/08 04:43:04;;;;;;;12.15;6.22;;;;;;;11.75;55.04;95619.88;5013837;28;20434;-76
2023/10/08 04:45:34;;;;;;;19.33;7.80;;;;;;;11.58;54.97;95599.69;5013242;28;20056;-76
2023/10/08 04:47:59;;;;;;;16.25;6.82;;;;;;;11.81;54.78;95638.19;5025534;28;20123;-76
2023/10/08 04:50:30;;;;;;;18.70;7.45;;;;;;;11.64;54.26;95607.66;5015512;28;20531;-76
2023/10/08 04:52:58;;;;;;;17.83;8.10;;;;;;;11.60;54.20;95602.06;5013801;28;20530;-76
2023/10/08 04:55:29;;;;;;;16.10;7.57;;;;;;;11.75;54.14;95609.25;4995526;28;20042;-76
2023/10/08 04:57:55;;;;;;;22.63;7.70;;;;;;;11.81;54.59;95622.25;5017210;28;20037;-76
2023/10/08 05:03:13;;;;;;;23.10;7.55;;;;;;;11.78;55.34;95616.66;5013756;28;20052;-76
2023/10/08 05:05:55;;;;;;;15.88;6.97;;;;;;;11.49;55.48;95577.41;5007439;28;20055;-76
2023/10/08 05:08:47;;;;;;;22.05;9.43;;;;;;;11.85;54.63;95615.31;5000592;28;20050;-76
2023/10/08 05:11:24;;;;;;;;;;;;;;;11.89;54.75;95631.53;5015605;28;20041;-76
2023/10/08 05:14:02;;;;;;;14.70;8.35;;;;;;;11.73;54.83;95595.41;5015443;28;20391;-76
2023/10/08 05:16:43;;;;;;;19.90;7.75;;;;;;;11.57;54.07;95568.06;5033190;28;20067;-76
2023/10/08 05:19:37;;;;;;;17.17;7.95;;;;;;;11.98;53.73;95641.31;5034319;28;20129;-76
2023/10/08 05:22:17;;;;;;;22.08;7.60;;;;;;;12.09;54.28;95647.41;5017425;28;20049;-76
2023/10/08 05:25:24;;;;;;;22.48;7.97;;;;;;;12.06;53.97;95631.19;5018041;28;20129;-76
2023/10/08 05:33:59;;;;;;;19.75;8.40;;;;;;;12.32;53.84;95646.78;5012853;28;20049;-76
2023/10/08 05:36:27;;;;;;;20.15;9.00;;;;;;;12.30;53.87;95624.19;5034096;28;20076;-76
2023/10/08 05:39:19;;;;;;;21.48;10.18;;;;;;;12.50;53.15;95645.38;5033968;28;20029;-76
2023/10/08 05:42:12;;;;;;;16.23;7.25;;;;;;;12.37;52.49;95619.38;5025172;28;20117;-76
2023/10/08 05:44:39;;;;;;;17.48;7.72;;;;;;;12.63;51.57;95655.44;5013303;28;20464;-76
2023/10/08 05:47:38;;;;;;;15.98;8.63;;;;;;;12.60;51.28;95636.53;5019487;28;20052;-76
2023/10/08 05:50:23;;;;;;;16.88;8.10;;;;;;;12.55;51.68;95629.38;5013135;28;20112;-76
2023/10/08 05:55:26;;;;;;;19.73;7.70;;;;;;;12.80;51.36;95639.09;5032664;28;20097;-76
2023/10/08 06:01:08;;;;;;;21.40;7.80;;;;;;;13.03;50.71;95653.59;4971093;28;20533;-77
2023/10/08 06:03:47;;;;;;;20.15;8.18;;;;;;;12.78;49.80;95622.59;5006001;28;20042;-77
2023/10/08 06:12:10;;;;;;;19.92;9.70;;;;;;;13.01;48.85;95629.91;5020439;28;20209;-77
2023/10/08 06:14:16;;;;;;;26.15;11.27;;;;;;;13.24;48.78;95644.41;5006938;28;20084;-76
2023/10/08 06:16:46;;;;;;;25.90;10.13;;;;;;;13.36;48.83;95650.16;5017083;28;20038;-76
2023/10/08 06:19:13;;;;;;;20.80;9.73;;;;;;;13.42;48.48;95653.59;5016319;28;20053;-76
2023/10/08 06:21:41;;;;;;;15.73;7.05;;;;;;;13.18;48.18;95626.09;5023775;28;20518;-76
2023/10/08 06:24:10;;;;;;;19.30;7.43;;;;;;;13.22;48.76;95627.91;5014986;28;20069;-76
2023/10/08 06:26:42;;;;;;;20.40;7.28;;;;;;;13.19;48.21;95625.81;5011701;28;20042;-77
2023/10/08 06:29:26;;;;;;;33.70;7.40;;;;;;;12.85;48.45;95566.41;5011392;28;20045;-77
2023/10/08 06:31:56;;;;;;;17.33;8.02;;;;;;;13.13;48.19;95598.41;5012256;28;20393;-76
2023/10/08 06:34:25;;;;;;;14.93;7.90;;;;;;;13.41;48.09;95620.84;4994388;28;20045;-77
2023/10/08 06:36:54;;;;;;;24.80;9.35;;;;;;;13.57;48.37;95634.00;5009385;28;20092;-76
2023/10/08 06:39:33;;;;;;;22.33;9.63;;;;;;;13.20;48.06;95576.00;5001485;28;20042;-76
2023/10/08 06:41:59;;;;;;;18.10;8.48;;;;;;;13.67;48.07;95631.22;5008738;28;20073;-77
2023/10/08 06:44:26;;;;;;;17.02;8.43;;;;;;;13.67;48.42;95616.03;5031302;28;20052;-76
2023/10/08 06:46:58;;;;;;;21.45;10.23;;;;;;;13.51;48.13;95582.63;4997157;28;20048;-76
2023/10/08 06:49:23;;;;;;;21.67;9.35;;;;;;;13.95;47.88;95643.75;5011671;28;20041;-76
2023/10/08 06:51:51;;;;;;;19.52;8.93;;;;;;;13.95;47.57;95621.63;4994353;28;20249;-74
2023/10/08 06:54:18;;;;;;;22.60;8.85;;;;;;;13.85;47.35;95607.34;5011850;28;20362;-74
2023/10/08 06:56:51;;;;;;;23.50;8.93;;;;;;;14.10;47.15;95643.59;5011097;28;20159;-74
2023/10/08 06:59:17;;;;;;;16.77;8.27;;;;;;;13.79;47.28;95595.13;5011633;28;20038;-74
2023/10/08 07:01:45;;;;;;;19.60;7.57;;;;;;;13.86;47.42;95616.13;5004666;28;20044;-74
2023/10/08 07:04:12;;;;;;;19.15;6.93;;;;;;;14.09;47.11;95636.66;5012993;28;20045;-74
2023/10/08 07:06:39;;;;;;;23.88;7.85;;;;;;;14.23;47.35;95642.09;5007605;28;20053;-76
2023/10/08 07:09:06;;;;;;;20.17;8.00;;;;;;;14.32;47.07;95636.94;5008943;28;20561;-74
2023/10/08 07:11:39;;;;;;;29.05;7.80;;;;;;;14.37;47.42;95634.19;5011314;28;20052;-74
2023/10/08 07:14:05;;;;;;;18.17;8.23;;;;;;;14.36;47.04;95645.94;5008726;28;20038;-74
2023/10/08 07:16:31;;;;;;;16.35;7.47;;;;;;;14.39;47.06;95621.41;4993311;28;20052;-74
2023/10/08 07:19:05;;;;;;;15.85;7.13;;;;;;;14.44;46.87;95610.66;5010903;28;20068;-74
2023/10/08 07:21:44;;;;;;;19.92;7.68;;;;;;;14.60;46.72;95626.19;5029399;28;20048;-75
2023/10/08 07:24:15;;;;;;;17.95;8.50;;;;;;;14.52;46.40;95586.78;5011539;28;20123;-74
2023/10/08 07:26:46;;;;;;;15.97;7.70;;;;;;;14.72;46.44;95606.28;5010727;28;20053;-75
2023/10/08 07:29:12;;;;;;;18.55;7.40;;;;;;;14.74;46.34;95610.25;5011077;28;20526;-75
2023/10/08 07:31:42;;;;;;;20.65;7.22;;;;;;;14.53;46.03;95571.56;5010911;28;20057;-75
2023/10/08 07:36:50;;;;;;;29.27;8.90;;;;;;;14.98;46.17;95604.81;5011115;28;20590;-74
2023/10/08 07:39:33;;;;;;;25.48;8.77;;;;;;;14.99;46.28;95585.06;4993358;28;20054;-75
2023/10/08 07:42:01;;;;;;;25.33;9.68;;;;;;;15.05;45.88;95595.34;5010318;28;20049;-74
2023/10/08 07:44:30;;;;;;;29.30;9.15;;;;;;;14.92;46.08;95547.25;4993031;28;20132;-74
2023/10/08 07:46:56;;;;;;;23.65;8.90;;;;;;;15.06;45.71;95567.56;4992878;28;20038;-75
2023/10/08 07:49:30;;;;;;;29.55;8.88;;;;;;;15.25;45.99;95583.56;5010962;28;20409;-74
2023/10/08 07:51:58;;;;;;;26.08;9.90;;;;;;;15.20;45.68;95580.97;5010175;28;20045;-75
2023/10/08 07:54:24;;;;;;;22.05;9.02;;;;;;;15.01;45.80;95538.28;5004284;28;20472;-75
2023/10/08 07:57:09;;;;;;;19.33;8.35;;;;;;;15.41;45.52;95582.19;5012120;28;20196;-75
2023/10/08 07:59:47;;;;;;;18.45;7.75;;;;;;;15.10;46.00;95529.59;5012393;28;20052;-74
2023/10/08 08:02:15;;;;;;;27.67;9.15;;;;;;;15.50;45.53;95584.19;5011664;28;20436;-77
2023/10/08 08:04:50;;;;;;;22.65;8.35;;;;;;;15.61;46.01;95582.97;5029722;28;20180;-79
2023/10/08 08:07:16;;;;;;;16.60;7.93;;;;;;;15.26;45.73;95518.34;5004948;28;20507;-76
2023/10/08 08:09:58;;;;;;;27.48;7.82;;;;;;;15.34;45.95;95514.19;5008523;28;20061;-77
2023/10/08 08:12:25;;;;;;;22.23;7.63;;;;;;;15.79;45.65;95566.84;5009523;28;20045;-77
2023/10/08 08:14:51;;;;;;;25.63;8.15;;;;;;;15.80;45.31;95565.75;5022909;28;20041;-77
2023/10/08 08:17:22;;;;;;;18.27;7.82;;;;;;;15.72;44.80;95537.03;4998879;28;20069;-77
2023/10/08 08:19:51;;;;;;;21.55;7.60;;;;;;;15.90;44.81;95563.97;4989274;28;20051;-77
2023/10/08 08:22:22;;;;;;;24.95;8.43;;;;;;;16.01;44.98;95554.69;5006791;28;20623;-77
2023/10/08 08:25:33;;;;;;;20.83;8.00;;;;;;;15.59;44.45;95472.88;5010372;28;20108;-77
2023/10/08 08:27:44;;;;;;;15.05;6.97;;;;;;;16.22;44.59;95550.50;5003801;28;20468;-77
2023/10/08 08:30:10;;;;;;;22.23;6.65;;;;;;;16.25;44.45;95535.72;4990992;28;20042;-77
2023/10/08 08:32:39;;;;;;;26.65;7.63;;;;;;;16.24;44.30;95505.50;4998683;28;20076;-77
2023/10/08 08:35:09;;;;;;;26.52;7.35;;;;;;;16.61;43.22;95541.13;5008828;28;20497;-77
2023/10/08 08:37:35;;;;;;;23.52;7.15;;;;;;;16.43;43.25;95482.03;5008005;28;20034;-77
2023/10/08 08:40:17;;;;;;;16.40;6.20;;;;;;;16.86;42.67;95519.88;5011160;28;20038;-77
2023/10/08 08:42:48;;;;;;;;;;;;;;;17.38;39.84;95532.84;5013576;28;20042;-77
2023/10/08 08:45:24;;;;;;;12.23;4.90;;;;;;;17.58;38.89;95533.09;4997377;28;19926;-77
2023/10/08 08:47:51;;;;;;;10.90;4.63;;;;;;;17.94;36.91;95527.56;4993503;28;20038;-78
2023/10/08 08:50:19;;;;;;;13.10;4.57;;;;;;;17.42;35.99;95405.88;4991862;28;20396;-78
2023/10/08 08:52:45;;;;;;;15.60;4.88;;;;;;;18.63;34.18;95535.78;4993670;28;20065;-77
2023/10/08 08:55:14;;;;;;;10.60;4.10;;;;;;;18.91;33.60;95516.66;4993776;28;20509;-78
2023/10/08 08:57:44;;;;;;;12.18;4.43;;;;;;;19.07;33.19;95502.38;4993189;28;20105;-77
2023/10/08 09:00:12;;;;;;;15.40;4.70;;;;;;;19.28;32.78;95497.16;5001505;28;20038;-77
2023/10/08 09:02:38;;;;;;;12.65;4.32;;;;;;;19.54;32.54;95521.28;5012632;28;20046;-78
2023/10/08 09:05:24;;;;;;;13.45;4.53;;;;;;;19.67;32.43;95514.16;5013153;28;20146;-79
2023/10/08 09:08:04;;;;;;;14.15;4.57;;;;;;;19.94;31.94;95513.69;5011356;28;20046;-77
2023/10/08 09:10:36;;;;;;;11.57;4.50;;;;;;;19.92;32.00;95491.69;5009108;28;20046;-78
2023/10/08 09:13:04;;;;;;;12.25;4.78;;;;;;;20.13;31.40;95505.22;4993852;28;20046;-77
2023/10/08 09:15:32;;;;;;;8.48;4.22;;;;;;;19.93;31.28;95442.91;5009720;28;20121;-76
2023/10/08 09:18:04;;;;;;;9.43;5.00;;;;;;;20.24;30.96;95474.09;4996839;28;20038;-77
2023/10/08 09:20:31;;;;;;;15.07;4.57;;;;;;;20.25;31.03;95486.44;5011543;28;20050;-77
2023/10/08 09:23:21;;;;;;;13.52;4.78;;;;;;;20.53;31.06;95492.13;5012355;28;20559;-77
2023/10/08 09:25:51;;;;;;;12.90;4.45;;;;;;;20.42;31.21;95483.66;5028002;28;20096;-77
2023/10/08 09:28:18;;;;;;;10.77;4.55;;;;;;;20.26;31.19;95451.09;5008563;28;20054;-77
2023/10/08 09:30:48;;;;;;;10.07;4.35;;;;;;;20.46;31.02;95494.56;4992206;28;20093;-76
2023/10/08 09:33:15;;;;;;;11.80;4.18;;;;;;;20.28;31.24;95469.63;5012484;28;20565;-77
2023/10/08 09:35:43;;;;;;;21.25;4.70;;;;;;;20.37;31.04;95481.94;5026730;28;20125;-77
2023/10/08 09:38:08;;;;;;;22.92;4.88;;;;;;;20.50;31.08;95517.84;4992611;28;20035;-77
2023/10/08 09:40:37;;;;;;;17.08;4.97;;;;;;;20.27;31.03;95452.69;4993584;28;20068;-77
2023/10/08 09:43:04;;;;;;;10.82;4.28;;;;;;;20.48;31.03;95468.88;4994310;28;20101;-76
2023/10/08 09:45:30;;;;;;;7.70;4.22;;;;;;;20.25;30.75;95446.03;5000139;28;20053;-77
2023/10/08 09:47:56;;;;;;;8.13;4.25;;;;;;;20.68;30.19;95464.59;5011773;28;20090;-77
2023/10/08 09:50:28;;;;;;;15.93;4.43;;;;;;;21.21;29.50;95463.78;5012412;28;20527;-77
2023/10/08 09:53:22;;;;;;;12.63;4.97;;;;;;;21.95;28.83;95482.44;5002942;28;20045;-77
2023/10/08 09:55:56;;;;;;;35.13;5.25;;;;;;;22.25;28.22;95469.50;5020782;28;20045;-77
2023/10/08 09:58:27;;;;;;;11.13;4.75;;;;;;;22.16;28.50;95470.75;5010883;28;20106;-77
2023/10/08 10:00:56;;;;;;;19.85;4.85;;;;;;;22.20;28.46;95453.50;5006950;28;20050;-77
2023/10/08 10:03:23;;;;;;;8.25;4.25;;;;;;;22.00;28.89;95470.63;5003846;28;20080;-76
2023/10/08 10:05:52;;;;;;;8.65;4.07;;;;;;;21.72;29.29;95443.53;5003571;28;20073;-77
2023/10/08 10:08:20;;;;;;;8.30;4.25;;;;;;;21.76;29.40;95451.72;4993413;28;20044;-77
2023/10/08 10:10:47;;;;;;;9.07;4.45;;;;;;;21.71;29.41;95460.03;4993542;28;20117;-77
2023/10/08 10:13:15;;;;;;;11.80;4.50;;;;;;;21.69;29.47;95454.19;5005126;28;20041;-77
2023/10/08 10:15:42;;;;;;;11.30;4.88;;;;;;;21.79;29.48;95451.84;5006864;28;20042;-77
2023/10/08 10:18:13;;;;;;;11.25;5.25;;;;;;;21.82;29.37;95448.44;4998522;28;20080;-77
2023/10/08 10:20:50;;;;;;;12.30;4.30;;;;;;;22.10;28.43;95447.78;4991498;28;20510;-78
2023/10/08 10:23:42;;;;;;;21.35;5.40;;;;;;;22.78;27.34;95439.75;4991487;28;20050;-75
2023/10/08 10:26:34;;;;;;;15.45;4.07;;;;;;;23.29;26.88;95422.56;5006753;28;20097;-74
2023/10/08 10:29:15;;;;;;;58.90;5.28;;;;;;;23.57;27.04;95430.66;5000251;28;20038;-74
2023/10/08 10:31:47;;;;;;;14.53;4.80;;;;;;;23.88;27.33;95431.78;5008065;28;20495;-75
2023/10/08 10:34:19;;;;;;;12.75;3.60;;;;;;;24.19;27.12;95432.47;4999739;28;20571;-74
2023/10/08 10:36:54;;;;;;;15.50;3.72;;;;;;;24.20;27.09;95430.56;5014263;28;20458;-75
2023/10/08 10:39:31;;;;;;;24.15;4.75;;;;;;;24.10;27.26;95450.88;4994551;28;20043;-75
2023/10/08 10:42:01;;;;;;;13.93;3.80;;;;;;;24.20;27.34;95417.03;5007268;28;20057;-74
2023/10/08 10:44:30;;;;;;;39.03;5.57;;;;;;;24.08;27.55;95380.00;5011561;28;20041;-74
2023/10/08 10:47:42;;;;;;;12.80;4.13;;;;;;;24.04;27.18;95386.44;5011017;28;20112;-75
2023/10/08 10:52:31;;;;;;;11.80;4.32;;;;;;;24.34;27.40;95422.75;4991739;28;20112;-75
2023/10/08 10:55:18;;;;;;;17.70;5.07;;;;;;;24.10;27.61;95399.41;4991726;28;20054;-74
2023/10/08 11:00:59;;;;;;;12.32;4.15;;;;;;;24.40;27.12;95407.81;4970201;28;20113;-75
2023/10/08 11:03:25;;;;;;;13.20;4.30;;;;;;;24.55;27.16;95398.81;4969596;28;20105;-75
2023/10/08 11:05:54;;;;;;;9.30;3.63;;;;;;;24.49;27.27;95394.00;4980350;28;20034;-75
2023/10/08 11:08:23;;;;;;;9.98;3.80;;;;;;;24.66;27.14;95385.44;5011440;28;20088;-74
2023/10/08 11:10:52;;;;;;;10.95;3.72;;;;;;;24.75;26.75;95386.03;5011144;28;20034;-74
2023/10/08 11:13:28;;;;;;;11.10;3.67;;;;;;;24.57;26.94;95393.81;5011374;28;20489;-74
2023/10/08 11:15:54;;;;;;;18.35;4.28;;;;;;;24.49;26.79;95381.25;5009499;28;20042;-74
2023/10/08 11:18:25;;;;;;;12.05;3.83;;;;;;;24.49;26.88;95392.09;5010881;28;20481;-74
2023/10/08 11:20:54;;;;;;;12.98;4.47;;;;;;;24.14;26.75;95364.22;5023819;28;20046;-74
2023/10/08 11:23:36;;;;;;;13.55;3.45;;;;;;;24.39;26.59;95364.78;5010586;28;20527;-75
2023/10/08 11:26:06;;;;;;;13.88;4.10;;;;;;;24.22;27.35;95371.41;4998898;28;20042;-75
2023/10/08 11:28:41;;;;;;;9.40;3.83;;;;;;;24.43;27.27;95377.25;5014358;28;20071;-75
2023/10/08 11:31:09;;;;;;;11.25;3.67;;;;;;;24.41;27.23;95379.53;5016218;28;20547;-77
2023/10/08 11:33:39;;;;;;;17.10;3.90;;;;;;;24.75;26.80;95353.47;5010845;28;20045;-77
2023/10/08 11:36:07;;;;;;;12.85;4.22;;;;;;;24.66;27.28;95399.00;5013985;28;20140;-79
2023/10/08 11:38:42;;;;;;;19.48;3.72;;;;;;;24.33;27.91;95372.41;5015027;28;20077;-77
2023/10/08 11:41:21;;;;;;;15.80;3.92;;;;;;;23.96;28.10;95376.59;5013667;28;20048;-77
2023/10/08 11:44:03;;;;;;;17.95;3.92;;;;;;;23.86;28.50;95369.81;5010977;28;20096;-78
2023/10/08 11:46:41;;;;;;;11.45;3.92;;;;;;;23.84;28.91;95353.13;5006585;28;20038;-78
2023/10/08 11:49:07;;;;;;;13.80;4.15;;;;;;;23.61;28.71;95349.50;4990704;28;20529;-78
2023/10/08 11:51:34;;;;;;;8.07;4.05;;;;;;;23.38;29.21;95366.38;5002592;28;20208;-77
2023/10/08 11:54:06;;;;;;;12.88;3.92;;;;;;;23.39;29.44;95359.03;5009382;28;20440;-77
2023/10/08 11:56:33;;;;;;;22.02;4.45;;;;;;;23.49;29.56;95371.28;5010445;28;20053;-78
2023/10/08 11:59:05;;;;;;;13.80;3.60;;;;;;;23.45;29.44;95371.16;5010484;28;20046;-78
2023/10/08 12:01:35;;;;;;;11.57;3.97;;;;;;;23.23;29.79;95328.47;5008810;28;20064;-78
2023/10/08 12:04:01;;;;;;;14.82;5.22;;;;;;;23.22;29.85;95345.84;5010892;28;20084;-78
2023/10/08 12:06:29;;;;;;;26.08;5.53;;;;;;;23.07;30.04;95314.97;5008515;28;20492;-77
2023/10/08 12:08:58;;;;;;;13.73;4.32;;;;;;;23.30;29.60;95294.25;5009022;28;20137;-78
2023/10/08 12:11:30;;;;;;;18.92;4.30;;;;;;;23.93;29.25;95353.72;5010627;28;20112;-77
2023/10/08 12:13:58;;;;;;;15.57;4.70;;;;;;;24.11;29.48;95368.44;5011440;28;20038;-78
2023/10/08 12:16:26;;;;;;;24.05;4.03;;;;;;;24.39;29.00;95348.53;5012019;28;20037;-77
2023/10/08 12:18:58;;;;;;;16.02;4.07;;;;;;;24.20;28.85;95304.00;5015950;28;20134;-77
2023/10/08 12:21:25;;;;;;;10.55;3.83;;;;;;;24.66;28.50;95361.03;5033679;28;20504;-77
2023/10/08 12:23:51;;;;;;;15.00;5.03;;;;;;;24.55;28.81;95351.94;5034071;28;20404;-77